createdAt,value
2023-01-12T00:00:07.303Z,2.50
2023-01-12T00:02:39.218Z,1.25
2023-01-12T00:05:08.571Z,3.25
2023-01-12T00:07:35.405Z,0.00
2023-01-12T00:10:02.254Z,2.00
2023-01-12T00:12:29.102Z,2.25
2023-01-12T00:14:55.823Z,1.25
2023-01-12T00:17:22.679Z,3.00
2023-01-12T00:19:49.401Z,1.25
2023-01-12T00:22:17.526Z,4.50
2023-01-12T00:24:46.967Z,1.50
2023-01-12T00:27:17.418Z,1.00
2023-01-12T00:29:44.183Z,1.00
2023-01-12T00:32:14.595Z,0.50
2023-01-12T00:34:41.484Z,0.25
2023-01-12T00:37:08.416Z,2.00
2023-01-12T00:39:40.767Z,1.25
2023-01-12T00:42:13.041Z,2.00
2023-01-12T00:44:39.836Z,1.50
2023-01-12T00:47:07.493Z,3.00
2023-01-12T00:49:35.037Z,1.50
2023-01-12T00:52:01.925Z,1.00
2023-01-12T00:54:28.798Z,3.75
2023-01-12T00:56:56.955Z,1.00
2023-01-12T00:59:23.885Z,1.25
2023-01-12T01:01:51.161Z,3.00
2023-01-12T01:04:18.142Z,2.00
2023-01-12T01:06:45.173Z,2.50
2023-01-12T01:09:12.334Z,3.00
2023-01-12T01:11:39.957Z,3.00
2023-01-12T01:14:08.587Z,2.00
2023-01-12T01:16:35.607Z,2.00
2023-01-12T01:19:02.846Z,1.75
2023-01-12T01:21:29.654Z,1.75
2023-01-12T01:23:56.511Z,1.75
2023-01-12T01:26:24.062Z,3.00
2023-01-12T01:28:51.555Z,3.25
2023-01-12T01:31:23.269Z,1.75
2023-01-12T01:33:51.091Z,1.75
2023-01-12T01:36:19.272Z,2.00
2023-01-12T01:38:48.294Z,2.00
2023-01-12T01:41:21.860Z,1.25
2023-01-12T01:43:53.981Z,2.00
2023-01-12T01:46:38.258Z,0.75
2023-01-12T01:49:30.336Z,1.00
2023-01-12T01:52:05.444Z,0.50
2023-01-12T01:54:42.404Z,0.75
2023-01-12T01:57:12.287Z,1.75
2023-01-12T01:59:48.687Z,5.00
2023-01-12T02:02:18.358Z,16.25
2023-01-12T02:04:45.994Z,12.25
2023-01-12T02:07:13.237Z,10.25
2023-01-12T02:09:40.705Z,7.75
2023-01-12T02:12:08.674Z,8.25
2023-01-12T02:14:35.567Z,9.50
2023-01-12T02:17:22.009Z,11.50
2023-01-12T02:20:39.673Z,9.00
2023-01-12T02:23:54.202Z,9.25
2023-01-12T02:27:17.281Z,11.75
2023-01-12T02:30:26.125Z,12.00
2023-01-12T02:33:11.085Z,11.75
2023-01-12T02:35:49.301Z,10.75
2023-01-12T02:38:43.968Z,11.25
2023-01-12T02:41:24.194Z,9.00
2023-01-12T02:43:51.561Z,10.00
2023-01-12T02:46:28.641Z,8.25
2023-01-12T02:49:08.121Z,9.50
2023-01-12T02:51:47.912Z,8.25
2023-01-12T02:54:20.056Z,9.75
2023-01-12T02:56:51.158Z,6.50
2023-01-12T02:59:26.028Z,3.75
2023-01-12T03:02:00.537Z,4.25
2023-01-12T03:04:32.424Z,6.75
2023-01-12T03:07:32.829Z,4.50
2023-01-12T03:10:15.870Z,7.00
2023-01-12T03:12:45.298Z,8.75
2023-01-12T03:15:17.931Z,10.25
2023-01-12T03:17:55.045Z,6.75
2023-01-12T03:20:30.593Z,4.75
2023-01-12T03:23:07.525Z,4.75
2023-01-12T03:25:39.396Z,4.50
2023-01-12T03:28:09.874Z,4.25
2023-01-12T03:30:42.008Z,2.75
2023-01-12T03:33:10.786Z,2.75
2023-01-12T03:35:50.646Z,4.50
2023-01-12T03:38:27.099Z,2.25
2023-01-12T03:41:06.557Z,1.00
2023-01-12T03:43:43.084Z,2.75
2023-01-12T03:46:18.598Z,2.00
2023-01-12T03:48:52.017Z,1.00
2023-01-12T03:51:25.805Z,2.25
2023-01-12T03:53:56.343Z,1.00
2023-01-12T03:56:29.285Z,1.50
2023-01-12T03:58:57.957Z,2.00
2023-01-12T04:01:24.958Z,1.25
2023-01-12T04:03:51.814Z,0.25
2023-01-12T04:06:25.762Z,0.75
2023-01-12T04:08:52.563Z,3.00
2023-01-12T04:11:19.690Z,0.75
2023-01-12T04:13:46.514Z,1.00
2023-01-12T04:16:13.420Z,1.50
2023-01-12T04:18:40.289Z,2.50
2023-01-12T04:21:07.114Z,1.00
2023-01-12T04:23:35.262Z,1.00
2023-01-12T04:26:02.165Z,3.00
2023-01-12T04:28:28.990Z,0.75
2023-01-12T04:30:55.747Z,2.50
2023-01-12T04:33:22.765Z,3.00
2023-01-12T04:35:49.629Z,3.00
2023-01-12T04:38:16.349Z,0.00
2023-01-12T04:40:44.487Z,3.50
2023-01-12T04:43:11.663Z,5.00
2023-01-12T04:45:40.518Z,2.00
2023-01-12T04:48:11.100Z,1.50
2023-01-12T04:50:38.824Z,1.50
2023-01-12T04:53:08.853Z,4.25
2023-01-12T04:55:38.429Z,1.00
2023-01-12T04:58:07.334Z,0.00
2023-01-12T05:00:34.630Z,0.00
2023-01-12T05:03:02.234Z,1.00
2023-01-12T05:05:32.050Z,0.75
2023-01-12T05:07:59.877Z,2.00
2023-01-12T05:10:26.732Z,1.00
2023-01-12T05:12:53.539Z,4.00
2023-01-12T05:15:21.716Z,0.25
2023-01-12T05:17:48.539Z,0.75
2023-01-12T05:20:16.416Z,1.50
2023-01-12T05:22:43.442Z,3.25
2023-01-12T05:25:10.489Z,1.00
2023-01-12T05:27:37.479Z,0.00
2023-01-12T05:30:06.171Z,0.00
2023-01-12T05:32:37.845Z,0.50
2023-01-12T05:35:06.275Z,1.75
2023-01-12T05:37:34.496Z,0.75
2023-01-12T05:40:01.432Z,1.75
2023-01-12T05:42:28.547Z,4.25
2023-01-12T05:44:55.344Z,2.00
2023-01-12T05:47:22.179Z,1.50
2023-01-12T05:49:50.576Z,1.00
2023-01-12T05:52:17.360Z,0.75
2023-01-12T05:54:44.179Z,1.00
2023-01-12T05:57:11.085Z,2.50
2023-01-12T05:59:37.872Z,1.25
2023-01-12T06:02:04.725Z,1.25
2023-01-12T06:04:31.593Z,1.25
2023-01-12T06:06:59.731Z,1.00
2023-01-12T06:09:28.117Z,1.75
2023-01-12T06:11:55.142Z,2.75
2023-01-12T06:14:22.081Z,1.00
2023-01-12T06:16:48.924Z,1.00
2023-01-12T06:19:15.957Z,1.25
2023-01-12T06:21:42.744Z,1.00
2023-01-12T06:24:11.047Z,1.00
2023-01-12T06:26:37.842Z,1.50
2023-01-12T06:29:04.741Z,2.50
2023-01-12T06:31:32.952Z,3.00
2023-01-12T06:33:59.734Z,2.00
2023-01-12T06:36:27.743Z,2.50
2023-01-12T06:38:55.006Z,1.00
2023-01-12T06:41:23.218Z,3.25
2023-01-12T06:43:50.094Z,1.75
2023-01-12T06:46:16.983Z,0.50
2023-01-12T06:48:43.806Z,1.75
2023-01-12T06:51:10.570Z,2.25
2023-01-12T06:53:37.610Z,1.00
2023-01-12T06:56:05.506Z,1.00
2023-01-12T06:58:33.663Z,1.75
2023-01-12T07:01:01.438Z,1.25
2023-01-12T07:03:28.255Z,1.00
2023-01-12T07:05:58.478Z,3.25
2023-01-12T07:08:25.344Z,0.00
2023-01-12T07:10:52.547Z,1.50
2023-01-12T07:13:19.679Z,2.00
2023-01-12T07:15:47.865Z,1.00
2023-01-12T07:18:15.710Z,1.00
2023-01-12T07:20:42.530Z,1.25
2023-01-12T07:23:09.407Z,1.00
2023-01-12T07:25:36.154Z,1.00
2023-01-12T07:28:02.975Z,1.00
2023-01-12T07:30:29.889Z,1.50
2023-01-12T07:33:06.769Z,1.00
2023-01-12T07:35:33.924Z,4.25
2023-01-12T07:38:00.857Z,0.75
2023-01-12T07:40:28.241Z,2.00
2023-01-12T07:43:01.956Z,2.75
2023-01-12T07:45:30.462Z,1.75
2023-01-12T07:47:59.689Z,1.00
2023-01-12T07:50:28.871Z,2.00
2023-01-12T07:53:00.758Z,2.00
2023-01-12T07:55:28.894Z,2.75
2023-01-12T07:57:57.801Z,1.00
2023-01-12T08:00:27.124Z,0.25
2023-01-12T08:02:55.708Z,1.75
2023-01-12T08:05:23.887Z,1.25
2023-01-12T08:07:56.213Z,1.75
2023-01-12T08:10:23.180Z,0.75
2023-01-12T08:12:51.889Z,0.50
2023-01-12T08:15:19.178Z,1.00
2023-01-12T08:17:52.765Z,0.25
2023-01-12T08:20:27.813Z,1.00
2023-01-12T08:23:00.348Z,2.00
2023-01-12T08:25:37.005Z,2.00
2023-01-12T08:28:08.393Z,0.75
2023-01-12T08:30:36.117Z,1.00
2023-01-12T08:33:03.133Z,1.00
2023-01-12T08:35:34.530Z,2.00
2023-01-12T08:38:01.560Z,2.25
2023-01-12T08:40:28.424Z,1.00
2023-01-12T08:42:55.459Z,1.00
2023-01-12T08:45:22.320Z,1.00
2023-01-12T08:47:49.060Z,1.25
2023-01-12T08:50:15.883Z,1.50
2023-01-12T08:52:45.837Z,1.50
2023-01-12T08:55:12.664Z,2.75
2023-01-12T08:57:39.449Z,2.00
2023-01-12T09:00:08.953Z,1.25
2023-01-12T09:02:35.880Z,1.00
2023-01-12T09:05:03.022Z,0.75
2023-01-12T09:07:31.765Z,1.00
2023-01-12T09:10:00.164Z,3.00
2023-01-12T09:12:27.477Z,0.00
2023-01-12T09:14:54.984Z,1.50
2023-01-12T09:17:21.907Z,1.00
2023-01-12T09:19:49.835Z,0.25
2023-01-12T09:22:16.612Z,1.00
2023-01-12T09:24:43.528Z,2.75
2023-01-12T09:27:12.862Z,1.00
2023-01-12T09:29:39.653Z,1.00
2023-01-12T09:32:06.468Z,1.00
2023-01-12T09:34:33.879Z,0.00
2023-01-12T09:37:00.648Z,1.50
2023-01-12T09:39:28.494Z,2.00
2023-01-12T09:41:58.670Z,0.00
2023-01-12T09:44:32.006Z,0.50
2023-01-12T09:47:04.435Z,2.00
2023-01-12T09:49:37.461Z,0.50
2023-01-12T09:52:15.069Z,1.00
2023-01-12T09:54:42.402Z,1.00
2023-01-12T09:57:41.390Z,1.00
2023-01-12T10:00:14.809Z,0.50
2023-01-12T10:02:46.366Z,0.00
2023-01-12T10:05:38.629Z,1.00
2023-01-12T10:08:17.458Z,1.25
2023-01-12T10:11:05.368Z,1.25
2023-01-12T10:14:09.337Z,0.00
2023-01-12T10:16:57.862Z,1.75
2023-01-12T10:19:35.530Z,1.25
2023-01-12T10:22:20.978Z,1.00
2023-01-12T10:24:49.177Z,1.75
2023-01-12T10:27:16.996Z,0.00
2023-01-12T10:29:44.339Z,1.75
2023-01-12T10:32:15.047Z,1.75
2023-01-12T10:34:50.033Z,3.00
2023-01-12T10:37:17.083Z,0.75
2023-01-12T10:39:44.848Z,0.25
2023-01-12T10:42:21.660Z,0.25
2023-01-12T10:45:16.549Z,0.00
2023-01-12T10:47:51.024Z,0.00
2023-01-12T10:50:24.984Z,0.00
2023-01-12T10:53:00.263Z,1.00
2023-01-12T10:58:31.333Z,0.00
2023-01-12T11:00:59.231Z,0.00
2023-01-12T11:03:34.237Z,1.00
2023-01-12T11:06:26.970Z,0.00
2023-01-12T11:08:55.338Z,0.33
2023-01-12T11:11:31.624Z,0.00
2023-01-12T11:14:01.351Z,1.00
2023-01-12T11:16:33.216Z,0.00
2023-01-12T11:19:17.244Z,0.67
2023-01-12T11:21:52.815Z,0.00
2023-01-12T11:24:38.018Z,0.00
2023-01-12T11:27:19.142Z,0.00
2023-01-12T11:29:56.936Z,0.00
2023-01-12T11:32:38.702Z,0.33
2023-01-12T11:35:31.583Z,1.00
2023-01-12T11:38:03.953Z,0.00
2023-01-12T11:40:34.225Z,0.00
2023-01-12T11:43:26.217Z,2.25
2023-01-12T11:46:04.273Z,2.00
2023-01-12T11:48:42.640Z,0.00
2023-01-12T11:51:13.219Z,0.00
2023-01-12T11:53:41.663Z,0.50
2023-01-12T11:56:28.379Z,0.00
2023-01-12T11:59:07.167Z,0.00
2023-01-12T12:01:51.846Z,0.25
2023-01-12T12:04:43.942Z,0.00
2023-01-12T12:07:34.917Z,0.00
2023-01-12T12:10:22.469Z,0.00
2023-01-12T12:13:23.044Z,0.00
2023-01-12T12:16:11.121Z,0.00
2023-01-12T12:19:01.437Z,0.00
2023-01-12T12:21:47.364Z,0.50
2023-01-12T12:24:40.392Z,0.00
2023-01-12T12:27:53.937Z,0.00
2023-01-12T12:31:02.818Z,0.00
2023-01-12T12:34:22.668Z,0.00
2023-01-12T12:37:01.794Z,0.00
2023-01-12T12:39:48.267Z,0.00
2023-01-12T12:42:39.365Z,0.00
2023-01-12T12:45:26.081Z,0.00
2023-01-12T12:48:03.668Z,0.00
2023-01-12T12:50:38.402Z,0.00
2023-01-12T12:53:19.158Z,0.00
2023-01-12T12:55:50.656Z,0.00
2023-01-12T12:58:44.311Z,0.00
2023-01-12T13:01:40.096Z,0.00
2023-01-12T13:04:13.346Z,0.00
2023-01-12T13:06:46.790Z,0.00
2023-01-12T13:09:47.981Z,0.00
2023-01-12T13:12:37.756Z,0.00
2023-01-12T13:15:30.915Z,0.00
2023-01-12T13:17:59.716Z,0.00
2023-01-12T13:20:55.354Z,0.50
2023-01-12T13:24:38.276Z,0.00
2023-01-12T13:27:52.607Z,0.25
2023-01-12T13:30:37.372Z,0.75
2023-01-12T13:33:25.359Z,0.00
2023-01-12T13:36:10.253Z,0.00
2023-01-12T13:38:52.684Z,0.00
2023-01-12T13:41:28.461Z,0.00
2023-01-12T13:43:58.375Z,0.00
2023-01-12T13:46:29.752Z,0.00
2023-01-12T13:48:57.082Z,0.00
2023-01-12T13:51:33.305Z,0.00
2023-01-12T13:54:03.471Z,0.00
2023-01-12T13:56:31.557Z,0.00
2023-01-12T13:59:04.425Z,0.00
2023-01-12T14:01:35.783Z,0.00
2023-01-12T14:04:33.190Z,0.00
2023-01-12T14:07:29.887Z,0.00
2023-01-12T14:10:37.822Z,0.00
2023-01-12T14:13:36.983Z,1.00
2023-01-12T14:16:14.337Z,2.00
2023-01-12T14:18:44.277Z,2.00
2023-01-12T14:21:25.649Z,0.25
2023-01-12T14:23:53.871Z,0.00
2023-01-12T14:26:23.645Z,1.00
2023-01-12T14:28:52.684Z,0.25
2023-01-12T14:31:33.459Z,0.00
2023-01-12T14:34:04.470Z,0.00
2023-01-12T14:36:43.621Z,1.00
2023-01-12T14:39:18.423Z,0.00
2023-01-12T14:41:49.645Z,0.00
2023-01-12T14:44:21.004Z,0.00
2023-01-12T14:46:52.432Z,0.00
2023-01-12T14:49:25.588Z,0.00
2023-01-12T14:51:54.646Z,0.00
2023-01-12T14:54:28.011Z,0.00
2023-01-12T14:57:00.454Z,1.00
2023-01-12T14:59:32.047Z,0.00
2023-01-12T15:02:25.587Z,0.00
2023-01-12T15:04:58.974Z,0.67
2023-01-12T15:07:34.459Z,0.00
2023-01-12T15:10:24.675Z,0.00
2023-01-12T15:12:54.438Z,2.00
2023-01-12T15:15:24.074Z,4.67
2023-01-12T15:17:54.957Z,0.33
2023-01-12T15:20:21.958Z,1.67
2023-01-12T15:22:48.918Z,0.00
2023-01-12T15:25:18.459Z,0.00
2023-01-12T15:27:45.606Z,0.00
2023-01-12T15:30:13.246Z,0.00
2023-01-12T15:32:47.778Z,0.00
2023-01-12T15:35:21.396Z,0.33
2023-01-12T15:37:48.294Z,0.00
2023-01-12T15:40:17.317Z,0.00
2023-01-12T15:42:44.680Z,0.00
2023-01-12T15:45:28.297Z,0.00
2023-01-12T15:47:55.283Z,0.00
2023-01-12T15:50:24.388Z,0.00
2023-01-12T15:52:51.281Z,0.00
2023-01-12T15:55:22.685Z,0.00
2023-01-12T15:57:49.912Z,0.00
2023-01-12T16:00:20.809Z,0.00
2023-01-12T16:03:02.980Z,0.33
2023-01-12T16:05:47.433Z,0.00
2023-01-12T16:08:17.700Z,0.00
2023-01-12T16:10:44.611Z,0.00
2023-01-12T16:13:11.451Z,0.00
2023-01-12T16:15:39.307Z,0.00
2023-01-12T16:18:06.245Z,0.00
2023-01-12T16:20:33.204Z,0.00
2023-01-12T16:23:01.368Z,0.00
2023-01-12T16:25:28.205Z,0.00
2023-01-12T16:27:56.698Z,0.00
2023-01-12T16:30:23.865Z,0.00
2023-01-12T16:32:51.108Z,0.00
2023-01-12T16:35:18.273Z,0.00
2023-01-12T16:37:45.092Z,0.00
2023-01-12T16:40:14.545Z,3.00
2023-01-12T16:42:41.357Z,2.67
2023-01-12T16:45:10.472Z,0.00
2023-01-12T16:47:37.397Z,2.00
2023-01-12T16:50:08.067Z,2.00
2023-01-12T16:52:34.955Z,1.00
2023-01-12T16:55:02.842Z,2.00
2023-01-12T16:57:32.736Z,0.00
2023-01-12T17:00:00.380Z,0.50
2023-01-12T17:02:27.709Z,1.00
2023-01-12T17:04:54.716Z,22.75
2023-01-12T17:07:21.646Z,17.00
2023-01-12T17:09:48.739Z,1.50
2023-01-12T17:12:16.219Z,2.00
2023-01-12T17:14:44.733Z,2.00
2023-01-12T17:17:12.077Z,2.50
2023-01-12T17:19:41.125Z,2.50
2023-01-12T17:22:08.941Z,1.25
2023-01-12T17:24:39.011Z,2.75
2023-01-12T17:27:10.403Z,4.00
2023-01-12T17:29:37.652Z,4.50
2023-01-12T17:32:07.869Z,0.25
2023-01-12T17:34:38.611Z,4.50
2023-01-12T17:37:06.656Z,0.25
2023-01-12T17:39:34.511Z,0.00
2023-01-12T17:42:01.359Z,1.00
2023-01-12T17:44:28.498Z,0.25
2023-01-12T17:46:55.689Z,0.00
2023-01-12T17:49:24.131Z,2.75
2023-01-12T17:51:51.255Z,0.00
2023-01-12T17:54:18.378Z,0.00
2023-01-12T17:56:45.843Z,0.00
2023-01-12T17:59:17.541Z,0.00
2023-01-12T18:01:46.723Z,1.00
2023-01-12T18:04:14.602Z,1.00
2023-01-12T18:06:43.357Z,0.00
2023-01-12T18:09:11.538Z,1.00
2023-01-12T18:11:38.815Z,1.75
2023-01-12T18:14:06.467Z,2.75
2023-01-12T18:16:34.387Z,1.00
2023-01-12T18:19:02.624Z,1.75
2023-01-12T18:21:29.828Z,2.00
2023-01-12T18:23:58.829Z,2.00
2023-01-12T18:26:29.187Z,1.25
2023-01-12T18:28:58.649Z,5.00
2023-01-12T18:31:28.085Z,4.25
2023-01-12T18:33:56.820Z,4.00
2023-01-12T18:36:25.854Z,3.00
2023-01-12T18:38:54.838Z,4.50
2023-01-12T18:41:24.095Z,4.00
2023-01-12T18:43:52.839Z,2.75
2023-01-12T18:46:31.074Z,3.00
2023-01-12T18:48:58.091Z,2.75
2023-01-12T18:51:24.962Z,2.00
2023-01-12T18:53:51.793Z,2.00
2023-01-12T18:56:18.887Z,3.00
2023-01-12T18:58:47.167Z,1.75
2023-01-12T19:01:20.072Z,5.50
2023-01-12T19:03:48.430Z,7.00
2023-01-12T19:06:18.347Z,3.25
2023-01-12T19:08:45.275Z,1.50
2023-01-12T19:11:14.536Z,1.75
2023-01-12T19:13:41.590Z,2.00
2023-01-12T19:16:14.070Z,2.75
2023-01-12T19:18:40.987Z,3.50
2023-01-12T19:21:08.770Z,3.75
2023-01-12T19:23:35.799Z,2.00
2023-01-12T19:26:04.608Z,2.25
2023-01-12T19:28:33.825Z,1.00
2023-01-12T19:31:03.032Z,2.50
2023-01-12T19:33:31.607Z,2.00
2023-01-12T19:36:04.737Z,3.50
2023-01-12T19:38:31.702Z,3.75
2023-01-12T19:41:02.932Z,6.00
2023-01-12T19:43:29.994Z,2.25
2023-01-12T19:46:00.917Z,6.50
2023-01-12T19:48:27.795Z,5.25
2023-01-12T19:51:08.372Z,10.00
2023-01-12T19:53:39.278Z,7.50
2023-01-12T19:56:09.388Z,5.00
2023-01-12T19:58:36.332Z,2.00
2023-01-12T20:01:03.548Z,1.00
2023-01-12T20:03:30.653Z,1.75
2023-01-12T20:05:58.964Z,1.25
2023-01-12T20:08:26.149Z,2.00
2023-01-12T20:10:57.103Z,1.50
2023-01-12T20:13:25.306Z,1.00
2023-01-12T20:15:52.793Z,2.00
2023-01-12T20:18:19.737Z,1.25
2023-01-12T20:20:46.855Z,2.00
2023-01-12T20:23:15.649Z,1.50
2023-01-12T20:25:43.289Z,0.25
2023-01-12T20:28:12.931Z,1.00
2023-01-12T20:30:41.271Z,0.75
2023-01-12T20:33:09.842Z,0.00
2023-01-12T20:35:43.831Z,0.00
2023-01-12T20:38:10.968Z,0.00
2023-01-12T20:40:39.159Z,0.00
2023-01-12T20:43:07.927Z,0.00
2023-01-12T20:45:42.082Z,0.00
2023-01-12T20:48:13.355Z,1.00
2023-01-12T20:50:43.133Z,3.00
2023-01-12T20:53:23.710Z,0.00
2023-01-12T20:56:02.940Z,0.00
2023-01-12T20:58:35.616Z,0.75
2023-01-12T21:01:18.948Z,0.00
2023-01-12T21:03:54.589Z,0.00
2023-01-12T21:06:22.036Z,0.00
2023-01-12T21:08:49.849Z,0.00
2023-01-12T21:11:20.518Z,0.00
2023-01-12T21:14:11.058Z,0.00
2023-01-12T21:16:55.411Z,0.00
2023-01-12T21:19:24.997Z,0.00
2023-01-12T21:21:51.839Z,0.25
2023-01-12T21:24:18.835Z,0.00
2023-01-12T21:26:54.673Z,0.25
2023-01-12T21:29:23.630Z,0.50
2023-01-12T21:31:50.607Z,0.00
2023-01-12T21:34:17.992Z,0.75
2023-01-12T21:36:44.858Z,0.00
2023-01-12T21:39:11.813Z,0.00
2023-01-12T21:41:38.804Z,0.00
2023-01-12T21:44:07.027Z,0.00
2023-01-12T21:46:33.922Z,0.25
2023-01-12T21:49:00.964Z,0.00
2023-01-12T21:51:41.586Z,0.00
2023-01-12T21:54:08.648Z,0.00
2023-01-12T21:56:38.497Z,0.00
2023-01-12T21:59:06.845Z,0.00
2023-01-12T22:01:33.841Z,0.00
2023-01-12T22:04:00.766Z,0.00
2023-01-12T22:06:27.722Z,0.00
2023-01-12T22:08:54.743Z,0.00
2023-01-12T22:11:21.473Z,0.00
2023-01-12T22:13:49.249Z,0.00
2023-01-12T22:16:20.471Z,0.00
2023-01-12T22:18:49.596Z,0.00
2023-01-12T22:21:18.565Z,0.00
2023-01-12T22:23:46.083Z,0.25
2023-01-12T22:26:15.637Z,3.00
2023-01-12T22:28:45.703Z,0.00
2023-01-12T22:31:18.809Z,1.00
2023-01-12T22:33:48.339Z,0.67
2023-01-12T22:36:15.213Z,0.00
2023-01-12T22:38:42.444Z,0.00
2023-01-12T22:41:13.452Z,0.00
2023-01-12T22:43:41.024Z,0.00
2023-01-12T22:46:15.812Z,0.33
2023-01-12T22:48:44.445Z,0.00
2023-01-12T22:51:12.901Z,0.00
2023-01-12T22:53:39.939Z,1.33
2023-01-12T22:56:10.017Z,0.00
2023-01-12T22:58:37.088Z,0.67
2023-01-12T23:01:05.987Z,0.00
2023-01-12T23:03:33.945Z,0.00
2023-01-12T23:06:03.788Z,0.00
2023-01-12T23:08:30.977Z,0.00
2023-01-12T23:11:06.550Z,1.00
2023-01-12T23:13:34.279Z,0.00
2023-01-12T23:16:04.488Z,0.00
2023-01-12T23:18:33.542Z,0.00
2023-01-12T23:21:06.153Z,0.00
2023-01-12T23:23:33.206Z,0.00
2023-01-12T23:26:05.909Z,0.00
2023-01-12T23:28:32.778Z,1.00
2023-01-12T23:31:05.435Z,0.00
2023-01-12T23:33:33.160Z,0.00
2023-01-12T23:36:07.853Z,0.00
2023-01-12T23:38:35.261Z,0.00
2023-01-12T23:41:10.737Z,0.00
2023-01-12T23:43:42.019Z,0.00
2023-01-12T23:46:10.162Z,0.00
2023-01-12T23:48:37.023Z,0.00
2023-01-12T23:51:05.683Z,0.00
2023-01-12T23:53:32.896Z,0.00
2023-01-12T23:56:06.697Z,0.00
2023-01-12T23:58:34.766Z,0.00
